sensor_id;sensor_type;location;lat;lon;timestamp;temperature;humidity
6552;DHT22;3309;48.708;9.290;2023-12-04T00:01:52;-7.60;70.00
6552;DHT22;3309;48.708;9.290;2023-12-04T00:04:18;-7.60;62.30
6552;DHT22;3309;48.708;9.290;2023-12-04T00:06:44;-7.70;44.70
6552;DHT22;3309;48.708;9.290;2023-12-04T00:09:09;-7.80;28.20
6552;DHT22;3309;48.708;9.290;2023-12-04T00:11:35;-7.70;23.40
6552;DHT22;3309;48.708;9.290;2023-12-04T00:14:00;-7.90;9.20
6552;DHT22;3309;48.708;9.290;2023-12-04T00:16:26;-7.80;12.20
6552;DHT22;3309;48.708;9.290;2023-12-04T00:18:52;-7.90;16.90
6552;DHT22;3309;48.708;9.290;2023-12-04T00:21:17;-7.70;40.80
6552;DHT22;3309;48.708;9.290;2023-12-04T00:23:43;-7.60;91.40
6552;DHT22;3309;48.708;9.290;2023-12-04T00:26:09;-7.60;92.30
6552;DHT22;3309;48.708;9.290;2023-12-04T00:28:37;-7.70;67.60
6552;DHT22;3309;48.708;9.290;2023-12-04T00:31:03;-7.70;38.50
6552;DHT22;3309;48.708;9.290;2023-12-04T00:33:28;-7.80;29.30
6552;DHT22;3309;48.708;9.290;2023-12-04T00:35:54;-8.00;13.30
6552;DHT22;3309;48.708;9.290;2023-12-04T00:38:21;-8.10;1.00
6552;DHT22;3309;48.708;9.290;2023-12-04T00:40:46;-8.00;1.00
6552;DHT22;3309;48.708;9.290;2023-12-04T00:43:12;-8.10;1.00
6552;DHT22;3309;48.708;9.290;2023-12-04T00:45:37;-8.10;1.00
6552;DHT22;3309;48.708;9.290;2023-12-04T00:48:03;-8.10;1.00
6552;DHT22;3309;48.708;9.290;2023-12-04T00:50:29;-8.00;1.00
6552;DHT22;3309;48.708;9.290;2023-12-04T00:52:54;-8.00;2.40
6552;DHT22;3309;48.708;9.290;2023-12-04T00:55:20;-7.90;36.10
6552;DHT22;3309;48.708;9.290;2023-12-04T00:57:47;-7.90;27.10
6552;DHT22;3309;48.708;9.290;2023-12-04T01:00:13;-8.00;41.30
6552;DHT22;3309;48.708;9.290;2023-12-04T01:02:40;-7.90;69.40
6552;DHT22;3309;48.708;9.290;2023-12-04T01:05:05;-8.00;56.10
6552;DHT22;3309;48.708;9.290;2023-12-04T01:07:31;-8.10;50.90
6552;DHT22;3309;48.708;9.290;2023-12-04T01:09:57;-8.20;53.70
6552;DHT22;3309;48.708;9.290;2023-12-04T01:12:22;-8.20;57.50
6552;DHT22;3309;48.708;9.290;2023-12-04T01:14:48;-8.30;49.10
6552;DHT22;3309;48.708;9.290;2023-12-04T01:17:14;-8.10;51.90
6552;DHT22;3309;48.708;9.290;2023-12-04T01:19:40;-8.20;47.00
6552;DHT22;3309;48.708;9.290;2023-12-04T01:22:05;-8.30;36.50
6552;DHT22;3309;48.708;9.290;2023-12-04T01:24:31;-8.30;33.70
6552;DHT22;3309;48.708;9.290;2023-12-04T01:26:56;-8.20;24.00
6552;DHT22;3309;48.708;9.290;2023-12-04T01:29:22;-8.10;23.60
6552;DHT22;3309;48.708;9.290;2023-12-04T01:31:47;-8.10;11.20
6552;DHT22;3309;48.708;9.290;2023-12-04T01:34:13;-8.10;18.90
6552;DHT22;3309;48.708;9.290;2023-12-04T01:36:41;-8.20;16.00
6552;DHT22;3309;48.708;9.290;2023-12-04T01:39:07;-8.30;15.60
6552;DHT22;3309;48.708;9.290;2023-12-04T01:41:33;-8.20;16.80
6552;DHT22;3309;48.708;9.290;2023-12-04T01:43:59;-8.20;12.80
6552;DHT22;3309;48.708;9.290;2023-12-04T01:46:25;-8.10;9.50
6552;DHT22;3309;48.708;9.290;2023-12-04T01:48:51;-8.00;3.60
6552;DHT22;3309;48.708;9.290;2023-12-04T01:51:19;-8.00;1.00
6552;DHT22;3309;48.708;9.290;2023-12-04T01:53:45;-8.00;1.00
6552;DHT22;3309;48.708;9.290;2023-12-04T01:56:12;-7.90;1.00
6552;DHT22;3309;48.708;9.290;2023-12-04T01:58:39;-7.90;1.00
6552;DHT22;3309;48.708;9.290;2023-12-04T02:01:05;-7.90;1.00
6552;DHT22;3309;48.708;9.290;2023-12-04T02:03:31;-8.00;1.00
6552;DHT22;3309;48.708;9.290;2023-12-04T02:05:59;-8.00;1.00
6552;DHT22;3309;48.708;9.290;2023-12-04T02:08:26;-8.00;1.00
6552;DHT22;3309;48.708;9.290;2023-12-04T02:10:52;-7.90;1.00
6552;DHT22;3309;48.708;9.290;2023-12-04T02:13:17;-7.90;1.00
6552;DHT22;3309;48.708;9.290;2023-12-04T02:15:44;-7.90;1.00
6552;DHT22;3309;48.708;9.290;2023-12-04T02:18:10;-7.90;1.00
6552;DHT22;3309;48.708;9.290;2023-12-04T02:20:37;-7.90;1.00
6552;DHT22;3309;48.708;9.290;2023-12-04T02:23:02;-7.90;1.00
6552;DHT22;3309;48.708;9.290;2023-12-04T02:25:31;-7.90;1.00
6552;DHT22;3309;48.708;9.290;2023-12-04T02:28:02;-7.90;1.00
6552;DHT22;3309;48.708;9.290;2023-12-04T02:30:30;-7.90;1.00
6552;DHT22;3309;48.708;9.290;2023-12-04T02:32:58;-7.90;1.00
6552;DHT22;3309;48.708;9.290;2023-12-04T02:35:27;-7.90;1.00
6552;DHT22;3309;48.708;9.290;2023-12-04T02:37:54;-7.90;1.00
6552;DHT22;3309;48.708;9.290;2023-12-04T02:40:21;-8.00;1.00
6552;DHT22;3309;48.708;9.290;2023-12-04T02:42:47;-8.00;1.00
6552;DHT22;3309;48.708;9.290;2023-12-04T02:45:12;-7.90;1.00
6552;DHT22;3309;48.708;9.290;2023-12-04T02:47:38;-7.80;1.00
6552;DHT22;3309;48.708;9.290;2023-12-04T02:50:04;-7.90;1.00
6552;DHT22;3309;48.708;9.290;2023-12-04T02:52:30;-7.90;1.00
6552;DHT22;3309;48.708;9.290;2023-12-04T02:54:56;-7.90;1.00
6552;DHT22;3309;48.708;9.290;2023-12-04T02:57:22;-8.00;1.00
6552;DHT22;3309;48.708;9.290;2023-12-04T02:59:48;-7.90;1.00
6552;DHT22;3309;48.708;9.290;2023-12-04T03:02:14;-8.00;1.00
6552;DHT22;3309;48.708;9.290;2023-12-04T03:04:39;-8.00;1.00
6552;DHT22;3309;48.708;9.290;2023-12-04T03:07:05;-8.00;1.00
6552;DHT22;3309;48.708;9.290;2023-12-04T03:09:31;-8.00;1.00
6552;DHT22;3309;48.708;9.290;2023-12-04T03:11:56;-7.90;1.00
6552;DHT22;3309;48.708;9.290;2023-12-04T03:14:22;-7.90;1.00
6552;DHT22;3309;48.708;9.290;2023-12-04T03:16:47;-7.80;1.00
6552;DHT22;3309;48.708;9.290;2023-12-04T03:19:13;-7.60;1.00
6552;DHT22;3309;48.708;9.290;2023-12-04T03:21:38;-7.80;1.00
6552;DHT22;3309;48.708;9.290;2023-12-04T03:24:04;-7.90;1.00
6552;DHT22;3309;48.708;9.290;2023-12-04T03:26:30;-7.80;1.00
6552;DHT22;3309;48.708;9.290;2023-12-04T03:28:55;-7.80;1.00
6552;DHT22;3309;48.708;9.290;2023-12-04T03:31:22;-7.80;1.00
6552;DHT22;3309;48.708;9.290;2023-12-04T03:33:48;-7.80;1.00
6552;DHT22;3309;48.708;9.290;2023-12-04T03:36:15;-7.70;1.00
6552;DHT22;3309;48.708;9.290;2023-12-04T03:38:40;-7.70;1.00
6552;DHT22;3309;48.708;9.290;2023-12-04T03:41:16;-7.60;1.00
6552;DHT22;3309;48.708;9.290;2023-12-04T03:43:42;-7.70;1.00
6552;DHT22;3309;48.708;9.290;2023-12-04T03:46:08;-7.60;1.00
6552;DHT22;3309;48.708;9.290;2023-12-04T03:48:33;-7.60;1.00
6552;DHT22;3309;48.708;9.290;2023-12-04T03:50:59;-7.50;1.00
6552;DHT22;3309;48.708;9.290;2023-12-04T03:53:25;-7.50;1.00
6552;DHT22;3309;48.708;9.290;2023-12-04T03:55:51;-7.40;1.00
6552;DHT22;3309;48.708;9.290;2023-12-04T03:58:17;-7.50;1.00
6552;DHT22;3309;48.708;9.290;2023-12-04T04:00:42;-7.50;1.00
6552;DHT22;3309;48.708;9.290;2023-12-04T04:03:09;-7.50;1.00
6552;DHT22;3309;48.708;9.290;2023-12-04T04:05:35;-7.50;1.00
6552;DHT22;3309;48.708;9.290;2023-12-04T04:08:00;-7.50;1.00
6552;DHT22;3309;48.708;9.290;2023-12-04T04:10:26;-7.50;1.00
6552;DHT22;3309;48.708;9.290;2023-12-04T04:12:51;-7.40;1.00
6552;DHT22;3309;48.708;9.290;2023-12-04T04:15:17;-7.30;1.00
6552;DHT22;3309;48.708;9.290;2023-12-04T04:17:42;-7.40;1.00
6552;DHT22;3309;48.708;9.290;2023-12-04T04:20:08;-7.30;1.00
6552;DHT22;3309;48.708;9.290;2023-12-04T04:22:35;-7.20;1.00
6552;DHT22;3309;48.708;9.290;2023-12-04T04:25:06;-7.20;1.00
6552;DHT22;3309;48.708;9.290;2023-12-04T04:27:32;-7.20;1.00
6552;DHT22;3309;48.708;9.290;2023-12-04T04:30:00;-7.20;1.00
6552;DHT22;3309;48.708;9.290;2023-12-04T04:32:25;-7.20;1.00
6552;DHT22;3309;48.708;9.290;2023-12-04T04:34:51;-7.20;1.00
6552;DHT22;3309;48.708;9.290;2023-12-04T04:37:16;-7.10;1.00
6552;DHT22;3309;48.708;9.290;2023-12-04T04:39:42;-7.00;1.00
6552;DHT22;3309;48.708;9.290;2023-12-04T04:42:08;-7.00;1.00
6552;DHT22;3309;48.708;9.290;2023-12-04T04:44:33;-6.90;1.00
6552;DHT22;3309;48.708;9.290;2023-12-04T04:46:59;-6.90;1.00
6552;DHT22;3309;48.708;9.290;2023-12-04T04:49:25;-6.90;1.00
6552;DHT22;3309;48.708;9.290;2023-12-04T04:51:50;-6.90;1.00
6552;DHT22;3309;48.708;9.290;2023-12-04T04:54:16;-6.80;1.00
6552;DHT22;3309;48.708;9.290;2023-12-04T04:56:41;-6.90;1.00
6552;DHT22;3309;48.708;9.290;2023-12-04T04:59:07;-6.90;1.00
6552;DHT22;3309;48.708;9.290;2023-12-04T05:01:32;-6.70;1.00
6552;DHT22;3309;48.708;9.290;2023-12-04T05:03:58;-6.80;1.00
6552;DHT22;3309;48.708;9.290;2023-12-04T05:06:24;-6.90;1.00
6552;DHT22;3309;48.708;9.290;2023-12-04T05:08:49;-6.80;1.60
6552;DHT22;3309;48.708;9.290;2023-12-04T05:11:18;-6.90;1.00
6552;DHT22;3309;48.708;9.290;2023-12-04T05:13:47;-6.80;1.00
6552;DHT22;3309;48.708;9.290;2023-12-04T05:16:13;-7.00;1.00
6552;DHT22;3309;48.708;9.290;2023-12-04T05:18:39;-6.80;4.20
6552;DHT22;3309;48.708;9.290;2023-12-04T05:21:13;-6.70;1.40
6552;DHT22;3309;48.708;9.290;2023-12-04T05:23:39;-6.70;1.00
6552;DHT22;3309;48.708;9.290;2023-12-04T05:26:06;-6.70;1.00
6552;DHT22;3309;48.708;9.290;2023-12-04T05:28:32;-6.60;1.00
6552;DHT22;3309;48.708;9.290;2023-12-04T05:30:58;-6.60;1.00
6552;DHT22;3309;48.708;9.290;2023-12-04T05:33:24;-6.50;1.00
6552;DHT22;3309;48.708;9.290;2023-12-04T05:35:50;-6.30;1.00
6552;DHT22;3309;48.708;9.290;2023-12-04T05:38:18;-6.40;1.00
6552;DHT22;3309;48.708;9.290;2023-12-04T05:40:44;-6.50;1.00
6552;DHT22;3309;48.708;9.290;2023-12-04T05:43:10;-6.40;6.10
6552;DHT22;3309;48.708;9.290;2023-12-04T05:45:35;-6.50;1.00
6552;DHT22;3309;48.708;9.290;2023-12-04T05:48:01;-6.60;1.00
6552;DHT22;3309;48.708;9.290;2023-12-04T05:50:27;-6.20;6.80
6552;DHT22;3309;48.708;9.290;2023-12-04T05:52:53;-6.40;11.60
6552;DHT22;3309;48.708;9.290;2023-12-04T05:55:18;-6.50;20.20
6552;DHT22;3309;48.708;9.290;2023-12-04T05:57:45;-6.50;24.90
6552;DHT22;3309;48.708;9.290;2023-12-04T06:00:11;-6.50;23.80
6552;DHT22;3309;48.708;9.290;2023-12-04T06:02:44;-6.50;29.90
6552;DHT22;3309;48.708;9.290;2023-12-04T06:05:11;-6.50;32.40
6552;DHT22;3309;48.708;9.290;2023-12-04T06:07:36;-6.50;29.70
6552;DHT22;3309;48.708;9.290;2023-12-04T06:10:03;-6.50;28.00
6552;DHT22;3309;48.708;9.290;2023-12-04T06:12:32;-6.50;31.10
6552;DHT22;3309;48.708;9.290;2023-12-04T06:15:00;-6.40;37.10
6552;DHT22;3309;48.708;9.290;2023-12-04T06:17:26;-6.40;35.60
6552;DHT22;3309;48.708;9.290;2023-12-04T06:19:53;-6.30;34.70
6552;DHT22;3309;48.708;9.290;2023-12-04T06:22:19;-6.20;33.80
6552;DHT22;3309;48.708;9.290;2023-12-04T06:24:48;-6.30;35.80
6552;DHT22;3309;48.708;9.290;2023-12-04T06:27:18;-6.30;32.20
6552;DHT22;3309;48.708;9.290;2023-12-04T06:29:46;-6.20;33.50
6552;DHT22;3309;48.708;9.290;2023-12-04T06:32:12;-6.20;35.90
6552;DHT22;3309;48.708;9.290;2023-12-04T06:34:38;-6.30;33.50
6552;DHT22;3309;48.708;9.290;2023-12-04T06:37:09;-6.30;37.40
6552;DHT22;3309;48.708;9.290;2023-12-04T06:39:37;-6.20;53.90
6552;DHT22;3309;48.708;9.290;2023-12-04T06:42:07;-6.20;48.20
6552;DHT22;3309;48.708;9.290;2023-12-04T06:44:33;-6.20;44.30
6552;DHT22;3309;48.708;9.290;2023-12-04T06:47:00;-6.20;32.50
6552;DHT22;3309;48.708;9.290;2023-12-04T06:49:31;-6.20;54.10
6552;DHT22;3309;48.708;9.290;2023-12-04T06:51:57;-6.20;54.10
6552;DHT22;3309;48.708;9.290;2023-12-04T06:54:23;-6.10;53.30
6552;DHT22;3309;48.708;9.290;2023-12-04T06:56:49;-6.00;51.00
6552;DHT22;3309;48.708;9.290;2023-12-04T06:59:14;-5.90;41.70
6552;DHT22;3309;48.708;9.290;2023-12-04T07:01:40;-5.70;25.10
6552;DHT22;3309;48.708;9.290;2023-12-04T07:04:06;-5.70;9.10
6552;DHT22;3309;48.708;9.290;2023-12-04T07:06:39;-5.70;2.00
6552;DHT22;3309;48.708;9.290;2023-12-04T07:09:05;-5.60;1.00
6552;DHT22;3309;48.708;9.290;2023-12-04T07:11:32;-5.60;1.00
6552;DHT22;3309;48.708;9.290;2023-12-04T07:13:58;-5.60;1.00
6552;DHT22;3309;48.708;9.290;2023-12-04T07:16:24;-5.60;1.00
6552;DHT22;3309;48.708;9.290;2023-12-04T07:18:50;-5.60;7.60
6552;DHT22;3309;48.708;9.290;2023-12-04T07:21:16;-5.60;14.30
6552;DHT22;3309;48.708;9.290;2023-12-04T07:23:41;-5.60;11.50
6552;DHT22;3309;48.708;9.290;2023-12-04T07:26:07;-5.50;14.20
6552;DHT22;3309;48.708;9.290;2023-12-04T07:28:35;-5.40;7.10
6552;DHT22;3309;48.708;9.290;2023-12-04T07:31:01;-5.20;1.00
6552;DHT22;3309;48.708;9.290;2023-12-04T07:33:27;-5.10;1.00
6552;DHT22;3309;48.708;9.290;2023-12-04T07:35:53;-5.20;1.00
6552;DHT22;3309;48.708;9.290;2023-12-04T07:38:18;-5.50;1.00
6552;DHT22;3309;48.708;9.290;2023-12-04T07:40:45;-5.60;1.30
6552;DHT22;3309;48.708;9.290;2023-12-04T07:43:12;-5.40;8.20
6552;DHT22;3309;48.708;9.290;2023-12-04T07:45:42;-5.30;1.00
6552;DHT22;3309;48.708;9.290;2023-12-04T07:48:08;-5.20;1.00
6552;DHT22;3309;48.708;9.290;2023-12-04T07:50:33;-5.10;1.00
6552;DHT22;3309;48.708;9.290;2023-12-04T07:52:59;-4.90;1.00
6552;DHT22;3309;48.708;9.290;2023-12-04T07:55:25;-4.90;1.00
6552;DHT22;3309;48.708;9.290;2023-12-04T07:57:50;-4.90;1.00
6552;DHT22;3309;48.708;9.290;2023-12-04T08:00:17;-4.90;1.00
6552;DHT22;3309;48.708;9.290;2023-12-04T08:02:45;-4.90;1.00
6552;DHT22;3309;48.708;9.290;2023-12-04T08:05:12;-4.90;1.00
6552;DHT22;3309;48.708;9.290;2023-12-04T08:07:53;-4.70;1.00
6552;DHT22;3309;48.708;9.290;2023-12-04T08:10:19;-4.50;1.00
6552;DHT22;3309;48.708;9.290;2023-12-04T08:12:45;-4.50;1.00
6552;DHT22;3309;48.708;9.290;2023-12-04T08:15:14;-4.60;1.00
6552;DHT22;3309;48.708;9.290;2023-12-04T08:17:39;-4.50;1.00
6552;DHT22;3309;48.708;9.290;2023-12-04T08:20:06;-4.50;1.00
6552;DHT22;3309;48.708;9.290;2023-12-04T08:22:32;-4.50;1.00
6552;DHT22;3309;48.708;9.290;2023-12-04T08:24:57;-4.40;1.00
6552;DHT22;3309;48.708;9.290;2023-12-04T08:27:24;-4.40;1.00
6552;DHT22;3309;48.708;9.290;2023-12-04T08:29:50;-4.60;1.00
6552;DHT22;3309;48.708;9.290;2023-12-04T08:32:15;-4.50;1.00
6552;DHT22;3309;48.708;9.290;2023-12-04T08:34:41;-4.30;1.00
6552;DHT22;3309;48.708;9.290;2023-12-04T08:37:17;-4.20;1.00
6552;DHT22;3309;48.708;9.290;2023-12-04T08:39:44;-4.20;1.00
6552;DHT22;3309;48.708;9.290;2023-12-04T08:42:11;-4.10;1.00
6552;DHT22;3309;48.708;9.290;2023-12-04T08:44:37;-4.30;1.00
6552;DHT22;3309;48.708;9.290;2023-12-04T08:47:02;-4.30;1.00
6552;DHT22;3309;48.708;9.290;2023-12-04T08:49:28;-4.40;1.00
6552;DHT22;3309;48.708;9.290;2023-12-04T08:51:53;-4.40;1.00
6552;DHT22;3309;48.708;9.290;2023-12-04T08:54:19;-4.40;1.00
6552;DHT22;3309;48.708;9.290;2023-12-04T08:56:45;-4.30;1.00
6552;DHT22;3309;48.708;9.290;2023-12-04T08:59:10;-4.20;1.00
6552;DHT22;3309;48.708;9.290;2023-12-04T09:01:39;-4.20;1.00
6552;DHT22;3309;48.708;9.290;2023-12-04T09:04:05;-4.30;1.00
6552;DHT22;3309;48.708;9.290;2023-12-04T09:06:30;-4.30;1.00
6552;DHT22;3309;48.708;9.290;2023-12-04T09:08:56;-4.20;1.00
6552;DHT22;3309;48.708;9.290;2023-12-04T09:11:21;-4.10;1.00
6552;DHT22;3309;48.708;9.290;2023-12-04T09:13:47;-4.20;1.00
6552;DHT22;3309;48.708;9.290;2023-12-04T09:16:13;-3.90;1.00
6552;DHT22;3309;48.708;9.290;2023-12-04T09:18:41;-4.00;1.00
6552;DHT22;3309;48.708;9.290;2023-12-04T09:21:06;-3.90;1.00
6552;DHT22;3309;48.708;9.290;2023-12-04T09:23:34;-3.60;1.00
6552;DHT22;3309;48.708;9.290;2023-12-04T09:26:00;-3.30;1.00
6552;DHT22;3309;48.708;9.290;2023-12-04T09:28:25;-3.20;1.00
6552;DHT22;3309;48.708;9.290;2023-12-04T09:30:51;-3.10;1.00
6552;DHT22;3309;48.708;9.290;2023-12-04T09:33:16;-3.30;1.00
6552;DHT22;3309;48.708;9.290;2023-12-04T09:35:42;-3.00;1.00
6552;DHT22;3309;48.708;9.290;2023-12-04T09:38:08;-3.30;1.00
6552;DHT22;3309;48.708;9.290;2023-12-04T09:40:33;-3.20;1.00
6552;DHT22;3309;48.708;9.290;2023-12-04T09:42:59;-3.00;1.00
6552;DHT22;3309;48.708;9.290;2023-12-04T09:45:25;-3.00;1.00
6552;DHT22;3309;48.708;9.290;2023-12-04T09:47:50;-2.80;1.00
6552;DHT22;3309;48.708;9.290;2023-12-04T09:50:17;-2.70;1.00
6552;DHT22;3309;48.708;9.290;2023-12-04T09:52:48;-2.70;1.00
6552;DHT22;3309;48.708;9.290;2023-12-04T09:55:15;-2.70;1.00
6552;DHT22;3309;48.708;9.290;2023-12-04T09:57:41;-2.70;1.00
6552;DHT22;3309;48.708;9.290;2023-12-04T10:00:09;-2.70;1.00
6552;DHT22;3309;48.708;9.290;2023-12-04T10:02:35;-2.90;1.00
6552;DHT22;3309;48.708;9.290;2023-12-04T10:05:02;-2.90;1.00
6552;DHT22;3309;48.708;9.290;2023-12-04T10:07:30;-2.80;1.00
6552;DHT22;3309;48.708;9.290;2023-12-04T10:09:55;-2.60;1.00
6552;DHT22;3309;48.708;9.290;2023-12-04T10:12:21;-2.50;1.00
6552;DHT22;3309;48.708;9.290;2023-12-04T10:15:13;-2.30;1.00
6552;DHT22;3309;48.708;9.290;2023-12-04T10:17:40;-1.70;1.00
6552;DHT22;3309;48.708;9.290;2023-12-04T10:20:12;-1.60;1.00
6552;DHT22;3309;48.708;9.290;2023-12-04T10:22:57;-2.00;99.90
6552;DHT22;3309;48.708;9.290;2023-12-04T10:25:25;-1.30;1.00
6552;DHT22;3309;48.708;9.290;2023-12-04T10:27:52;-1.90;1.00
6552;DHT22;3309;48.708;9.290;2023-12-04T10:30:28;-2.10;1.00
6552;DHT22;3309;48.708;9.290;2023-12-04T10:32:57;-1.90;1.00
6552;DHT22;3309;48.708;9.290;2023-12-04T10:35:29;-1.90;1.00
6552;DHT22;3309;48.708;9.290;2023-12-04T10:37:58;-1.60;1.00
6552;DHT22;3309;48.708;9.290;2023-12-04T10:40:30;-1.70;1.00
6552;DHT22;3309;48.708;9.290;2023-12-04T10:43:18;-1.70;99.90
6552;DHT22;3309;48.708;9.290;2023-12-04T10:45:46;-1.50;99.90
6552;DHT22;3309;48.708;9.290;2023-12-04T10:48:13;-1.40;1.00
6552;DHT22;3309;48.708;9.290;2023-12-04T10:50:47;-0.90;1.00
6552;DHT22;3309;48.708;9.290;2023-12-04T10:53:14;-1.10;99.90
6552;DHT22;3309;48.708;9.290;2023-12-04T10:55:41;-1.30;99.90
6552;DHT22;3309;48.708;9.290;2023-12-04T10:58:15;-1.10;99.90
6552;DHT22;3309;48.708;9.290;2023-12-04T11:00:46;-0.90;99.90
6552;DHT22;3309;48.708;9.290;2023-12-04T11:03:21;-1.10;1.00
6552;DHT22;3309;48.708;9.290;2023-12-04T11:05:53;-1.10;36.10
6552;DHT22;3309;48.708;9.290;2023-12-04T11:08:20;-0.80;1.00
6552;DHT22;3309;48.708;9.290;2023-12-04T11:10:52;-0.80;1.00
6552;DHT22;3309;48.708;9.290;2023-12-04T11:13:23;-1.00;99.90
6552;DHT22;3309;48.708;9.290;2023-12-04T11:15:52;-0.70;99.90
6552;DHT22;3309;48.708;9.290;2023-12-04T11:18:23;-0.60;99.90
6552;DHT22;3309;48.708;9.290;2023-12-04T11:21:02;-0.70;1.00
6552;DHT22;3309;48.708;9.290;2023-12-04T11:23:30;-0.20;1.00
6552;DHT22;3309;48.708;9.290;2023-12-04T11:25:57;-0.40;1.00
6552;DHT22;3309;48.708;9.290;2023-12-04T11:28:23;-1.30;1.00
6552;DHT22;3309;48.708;9.290;2023-12-04T11:30:50;-1.00;36.00
6552;DHT22;3309;48.708;9.290;2023-12-04T11:33:16;-1.10;99.90
6552;DHT22;3309;48.708;9.290;2023-12-04T11:35:41;-1.20;1.00
6552;DHT22;3309;48.708;9.290;2023-12-04T11:38:07;-1.30;99.90
6552;DHT22;3309;48.708;9.290;2023-12-04T11:40:34;-1.40;1.00
6552;DHT22;3309;48.708;9.290;2023-12-04T11:43:20;-1.30;99.90
6552;DHT22;3309;48.708;9.290;2023-12-04T11:45:48;-0.90;1.00
6552;DHT22;3309;48.708;9.290;2023-12-04T11:48:14;-0.70;99.90
6552;DHT22;3309;48.708;9.290;2023-12-04T11:50:43;-0.70;99.90
6552;DHT22;3309;48.708;9.290;2023-12-04T11:53:10;-0.40;1.00
6552;DHT22;3309;48.708;9.290;2023-12-04T11:55:40;-0.30;1.00
6552;DHT22;3309;48.708;9.290;2023-12-04T11:58:11;-0.20;99.90
6552;DHT22;3309;48.708;9.290;2023-12-04T12:00:38;-0.20;99.90
6552;DHT22;3309;48.708;9.290;2023-12-04T12:03:05;-0.60;35.70
6552;DHT22;3309;48.708;9.290;2023-12-04T12:05:33;-0.50;1.00
6552;DHT22;3309;48.708;9.290;2023-12-04T12:08:01;-0.40;1.00
6552;DHT22;3309;48.708;9.290;2023-12-04T12:10:28;-0.60;1.00
6552;DHT22;3309;48.708;9.290;2023-12-04T12:12:54;-0.60;1.00
6552;DHT22;3309;48.708;9.290;2023-12-04T12:15:20;-1.00;99.90
6552;DHT22;3309;48.708;9.290;2023-12-04T12:17:47;-1.00;1.00
6552;DHT22;3309;48.708;9.290;2023-12-04T12:20:14;-0.80;1.00
6552;DHT22;3309;48.708;9.290;2023-12-04T12:22:41;-0.80;99.90
6552;DHT22;3309;48.708;9.290;2023-12-04T12:25:10;-0.90;1.00
6552;DHT22;3309;48.708;9.290;2023-12-04T12:27:36;-0.90;1.00
6552;DHT22;3309;48.708;9.290;2023-12-04T12:30:03;-0.80;1.00
6552;DHT22;3309;48.708;9.290;2023-12-04T12:32:31;-0.90;1.00
6552;DHT22;3309;48.708;9.290;2023-12-04T12:34:56;-0.30;1.00
6552;DHT22;3309;48.708;9.290;2023-12-04T12:37:22;-1.10;99.90
6552;DHT22;3309;48.708;9.290;2023-12-04T12:39:48;-1.30;1.00
6552;DHT22;3309;48.708;9.290;2023-12-04T12:42:28;-1.10;1.00
6552;DHT22;3309;48.708;9.290;2023-12-04T12:44:54;-1.40;1.00
6552;DHT22;3309;48.708;9.290;2023-12-04T12:47:21;-1.20;1.00
6552;DHT22;3309;48.708;9.290;2023-12-04T12:49:47;-1.20;1.00
6552;DHT22;3309;48.708;9.290;2023-12-04T12:52:12;-1.50;1.00
6552;DHT22;3309;48.708;9.290;2023-12-04T12:54:41;-1.60;1.00
6552;DHT22;3309;48.708;9.290;2023-12-04T12:57:08;-1.20;1.00
6552;DHT22;3309;48.708;9.290;2023-12-04T12:59:34;-1.60;1.00
6552;DHT22;3309;48.708;9.290;2023-12-04T13:01:59;-1.60;1.00
6552;DHT22;3309;48.708;9.290;2023-12-04T13:04:40;-1.70;1.00
6552;DHT22;3309;48.708;9.290;2023-12-04T13:07:05;-1.40;1.00
6552;DHT22;3309;48.708;9.290;2023-12-04T13:09:33;-1.50;1.00
6552;DHT22;3309;48.708;9.290;2023-12-04T13:11:59;-1.30;1.00
6552;DHT22;3309;48.708;9.290;2023-12-04T13:14:27;-1.10;1.00
6552;DHT22;3309;48.708;9.290;2023-12-04T13:16:54;-0.80;1.00
6552;DHT22;3309;48.708;9.290;2023-12-04T13:19:23;-1.00;1.00
6552;DHT22;3309;48.708;9.290;2023-12-04T13:21:49;-0.80;99.90
6552;DHT22;3309;48.708;9.290;2023-12-04T13:24:15;-0.40;1.00
6552;DHT22;3309;48.708;9.290;2023-12-04T13:26:41;-1.10;99.90
6552;DHT22;3309;48.708;9.290;2023-12-04T13:29:06;-1.20;99.90
6552;DHT22;3309;48.708;9.290;2023-12-04T13:31:36;-1.20;1.00
6552;DHT22;3309;48.708;9.290;2023-12-04T13:34:02;-1.20;1.00
6552;DHT22;3309;48.708;9.290;2023-12-04T13:36:33;-1.10;1.00
6552;DHT22;3309;48.708;9.290;2023-12-04T13:38:59;-1.30;1.00
6552;DHT22;3309;48.708;9.290;2023-12-04T13:41:25;-1.20;1.00
6552;DHT22;3309;48.708;9.290;2023-12-04T13:44:09;-1.20;1.00
6552;DHT22;3309;48.708;9.290;2023-12-04T13:46:34;-1.40;99.90
6552;DHT22;3309;48.708;9.290;2023-12-04T13:49:00;-1.60;1.00
6552;DHT22;3309;48.708;9.290;2023-12-04T13:51:26;-1.50;1.00
6552;DHT22;3309;48.708;9.290;2023-12-04T13:53:52;-1.50;1.00
6552;DHT22;3309;48.708;9.290;2023-12-04T13:56:22;-1.50;1.00
6552;DHT22;3309;48.708;9.290;2023-12-04T13:59:07;-1.40;1.00
6552;DHT22;3309;48.708;9.290;2023-12-04T14:01:33;-1.50;1.00
6552;DHT22;3309;48.708;9.290;2023-12-04T14:03:59;-1.50;1.00
6552;DHT22;3309;48.708;9.290;2023-12-04T14:06:28;-1.50;1.00
6552;DHT22;3309;48.708;9.290;2023-12-04T14:08:54;-1.50;1.00
6552;DHT22;3309;48.708;9.290;2023-12-04T14:11:20;-1.40;1.00
6552;DHT22;3309;48.708;9.290;2023-12-04T14:13:47;-1.20;1.00
6552;DHT22;3309;48.708;9.290;2023-12-04T14:16:13;-1.10;1.00
6552;DHT22;3309;48.708;9.290;2023-12-04T14:18:39;-1.00;1.00
6552;DHT22;3309;48.708;9.290;2023-12-04T14:21:05;-1.00;1.00
6552;DHT22;3309;48.708;9.290;2023-12-04T14:23:31;-1.00;1.00
6552;DHT22;3309;48.708;9.290;2023-12-04T14:25:57;-0.90;1.00
6552;DHT22;3309;48.708;9.290;2023-12-04T14:28:23;-0.80;1.00
6552;DHT22;3309;48.708;9.290;2023-12-04T14:30:48;-0.90;1.00
6552;DHT22;3309;48.708;9.290;2023-12-04T14:33:14;-1.20;1.00
6552;DHT22;3309;48.708;9.290;2023-12-04T14:35:39;-1.20;1.00
6552;DHT22;3309;48.708;9.290;2023-12-04T14:38:05;-0.90;1.00
6552;DHT22;3309;48.708;9.290;2023-12-04T14:40:31;-1.10;1.00
6552;DHT22;3309;48.708;9.290;2023-12-04T14:42:57;-1.00;1.00
6552;DHT22;3309;48.708;9.290;2023-12-04T14:45:28;-1.00;1.00
6552;DHT22;3309;48.708;9.290;2023-12-04T14:47:54;-0.90;1.00
6552;DHT22;3309;48.708;9.290;2023-12-04T14:50:22;-0.90;1.00
6552;DHT22;3309;48.708;9.290;2023-12-04T14:52:49;-1.00;1.00
6552;DHT22;3309;48.708;9.290;2023-12-04T14:55:36;-1.00;1.00
6552;DHT22;3309;48.708;9.290;2023-12-04T14:58:21;-1.00;1.00
6552;DHT22;3309;48.708;9.290;2023-12-04T15:01:25;-1.00;1.00
6552;DHT22;3309;48.708;9.290;2023-12-04T15:04:00;-0.90;1.00
6552;DHT22;3309;48.708;9.290;2023-12-04T15:06:36;-0.90;1.00
6552;DHT22;3309;48.708;9.290;2023-12-04T15:09:24;-0.90;1.00
6552;DHT22;3309;48.708;9.290;2023-12-04T15:12:09;-1.10;1.00
6552;DHT22;3309;48.708;9.290;2023-12-04T15:14:37;-1.00;1.00
6552;DHT22;3309;48.708;9.290;2023-12-04T15:17:17;-1.00;1.00
6552;DHT22;3309;48.708;9.290;2023-12-04T15:19:58;-1.00;1.00
6552;DHT22;3309;48.708;9.290;2023-12-04T15:22:45;-0.80;1.00
6552;DHT22;3309;48.708;9.290;2023-12-04T15:25:14;-0.80;1.00
6552;DHT22;3309;48.708;9.290;2023-12-04T15:27:40;-0.70;1.00
6552;DHT22;3309;48.708;9.290;2023-12-04T15:30:07;-0.90;1.00
6552;DHT22;3309;48.708;9.290;2023-12-04T15:32:34;-0.90;1.00
6552;DHT22;3309;48.708;9.290;2023-12-04T15:34:59;-1.00;1.00
6552;DHT22;3309;48.708;9.290;2023-12-04T15:37:28;-1.00;1.00
6552;DHT22;3309;48.708;9.290;2023-12-04T15:39:56;-0.90;1.00
6552;DHT22;3309;48.708;9.290;2023-12-04T15:42:22;-1.00;1.00
6552;DHT22;3309;48.708;9.290;2023-12-04T15:44:47;-0.90;1.00
6552;DHT22;3309;48.708;9.290;2023-12-04T15:47:13;-1.00;1.00
6552;DHT22;3309;48.708;9.290;2023-12-04T15:49:39;-0.90;1.00
6552;DHT22;3309;48.708;9.290;2023-12-04T15:52:04;-1.00;12.30
6552;DHT22;3309;48.708;9.290;2023-12-04T15:54:30;-1.10;10.60
6552;DHT22;3309;48.708;9.290;2023-12-04T15:56:59;-1.10;24.30
6552;DHT22;3309;48.708;9.290;2023-12-04T15:59:26;-1.20;78.70
6552;DHT22;3309;48.708;9.290;2023-12-04T16:01:53;-1.30;28.60
6552;DHT22;3309;48.708;9.290;2023-12-04T16:04:19;-1.20;49.60
6552;DHT22;3309;48.708;9.290;2023-12-04T16:06:45;-1.20;49.40
6552;DHT22;3309;48.708;9.290;2023-12-04T16:09:10;-1.00;29.20
6552;DHT22;3309;48.708;9.290;2023-12-04T16:11:40;-1.20;53.80
6552;DHT22;3309;48.708;9.290;2023-12-04T16:14:07;-1.20;66.20
6552;DHT22;3309;48.708;9.290;2023-12-04T16:16:32;-1.10;58.10